Allwood, New Jersey
Current Conditions -  °F | °C
As of 7:51 PM on Monday 20 Oct 2014 (Local Time) from KTEB Reporting Station
Clear Clear  
Wind Chill: 13°   Ceiling: Unl
Heat Index: 13°   Visibility: 10mi
Dew Point:   Wind: 3mph
Humidity: 49%   Direction: 180°S
Pressure: 29.97"   Gusts: NA
Location:  40.8469°N, 74.1593°W
Report Text: KTEB 202351Z 18003KT 10SM CLR 13/03 A2997 RMK AO2 SLP149 T01330028 10161 20128 53003
Loading
Personal Weather Stations






























Interactive Weather Map
Tropical Storm Tracking
New forecast layout! Learn more

10-Day Weather Forecast

Advertisements
Track Severe Weather on mobile